createdAt,value
2022-09-22T00:02:48.759Z,41.67
2022-09-22T00:07:53.982Z,40.55
2022-09-22T00:12:58.360Z,36.05
2022-09-22T00:18:04.448Z,40.08
2022-09-22T00:23:09.188Z,53.00
2022-09-22T00:28:13.704Z,46.10
2022-09-22T00:33:19.458Z,108.75
2022-09-22T00:38:23.815Z,86.82
2022-09-22T00:43:30.551Z,67.28
2022-09-22T00:48:40.515Z,66.88
2022-09-22T00:53:45.308Z,57.78
2022-09-22T00:58:53.503Z,60.65
2022-09-22T01:03:59.661Z,58.67
2022-09-22T01:09:04.963Z,62.03
2022-09-22T01:14:33.636Z,58.30
2022-09-22T01:20:26.591Z,67.68
2022-09-22T01:26:03.205Z,54.55
2022-09-22T01:31:16.496Z,47.75
2022-09-22T01:36:28.689Z,34.08
2022-09-22T01:41:59.297Z,43.00
2022-09-22T01:47:12.313Z,37.95
2022-09-22T01:52:22.119Z,36.38
2022-09-22T01:57:39.708Z,36.95
2022-09-22T02:02:53.334Z,33.15
2022-09-22T02:08:03.018Z,32.55
2022-09-22T02:13:08.023Z,30.38
2022-09-22T02:18:20.693Z,51.83
2022-09-22T02:23:25.176Z,67.45
2022-09-22T02:28:33.106Z,32.47
2022-09-22T02:33:42.764Z,31.38
2022-09-22T02:38:54.650Z,35.13
2022-09-22T02:44:06.722Z,40.25
2022-09-22T02:49:17.965Z,34.10
2022-09-22T02:54:23.065Z,39.88
2022-09-22T02:59:27.418Z,41.72
2022-09-22T03:04:33.782Z,45.63
2022-09-22T03:09:38.107Z,41.58
2022-09-22T03:14:42.576Z,40.55
2022-09-22T03:19:48.456Z,45.25
2022-09-22T03:24:53.080Z,40.42
2022-09-22T03:29:57.453Z,44.03
2022-09-22T03:35:03.722Z,47.65
2022-09-22T03:40:09.813Z,49.50
2022-09-22T03:45:15.315Z,50.58
2022-09-22T03:50:21.268Z,44.08
2022-09-22T03:55:26.059Z,44.83
2022-09-22T04:00:30.383Z,42.55
2022-09-22T04:05:37.679Z,44.70
2022-09-22T04:10:42.706Z,40.20
2022-09-22T04:15:48.496Z,36.80
2022-09-22T04:20:59.091Z,39.17
2022-09-22T04:26:03.646Z,44.55
2022-09-22T04:31:08.604Z,42.88
2022-09-22T04:36:15.087Z,47.78
2022-09-22T04:41:19.688Z,50.20
2022-09-22T04:46:25.433Z,50.28
2022-09-22T04:51:31.394Z,47.30
2022-09-22T04:56:35.809Z,48.50
2022-09-22T05:01:40.593Z,41.60
2022-09-22T05:06:47.407Z,49.38
2022-09-22T05:11:52.860Z,46.42
2022-09-22T05:16:58.090Z,40.63
2022-09-22T05:22:04.444Z,33.58
2022-09-22T05:27:08.885Z,31.77
2022-09-22T05:32:13.483Z,27.38
2022-09-22T05:37:19.955Z,32.17
2022-09-22T05:42:24.395Z,37.78
2022-09-22T05:47:28.854Z,33.58
2022-09-22T05:52:35.161Z,26.52
2022-09-22T05:57:43.447Z,26.55
2022-09-22T06:02:48.120Z,25.42
2022-09-22T06:08:03.777Z,22.30
2022-09-22T06:13:10.523Z,21.52
2022-09-22T06:18:16.935Z,22.80
2022-09-22T06:23:27.674Z,23.00
2022-09-22T06:28:32.670Z,22.08
2022-09-22T06:33:37.485Z,21.67
2022-09-22T06:38:44.915Z,19.98
2022-09-22T06:43:50.605Z,18.85
2022-09-22T06:48:57.638Z,14.68
2022-09-22T06:54:07.508Z,12.98
2022-09-22T06:59:14.556Z,9.43
2022-09-22T07:04:20.400Z,9.43
2022-09-22T07:09:27.340Z,11.27
2022-09-22T07:14:33.647Z,14.70
2022-09-22T07:19:38.387Z,13.85
2022-09-22T07:24:44.789Z,11.18
2022-09-22T07:29:49.828Z,16.58
2022-09-22T07:34:54.717Z,13.30
2022-09-22T07:40:03.702Z,10.23
2022-09-22T07:45:17.381Z,12.40
2022-09-22T07:50:21.738Z,14.98
2022-09-22T07:55:27.510Z,10.13
2022-09-22T08:00:36.791Z,10.40
2022-09-22T08:05:41.023Z,10.52
2022-09-22T08:10:46.751Z,13.85
2022-09-22T08:15:56.975Z,7.93
2022-09-22T08:21:02.090Z,4.82
2022-09-22T08:26:10.882Z,8.70
2022-09-22T08:31:20.363Z,11.23
2022-09-22T08:36:28.412Z,6.18
2022-09-22T08:41:44.515Z,4.50
2022-09-22T08:46:50.004Z,5.97
2022-09-22T08:52:00.696Z,3.30
2022-09-22T08:57:22.905Z,2.92
2022-09-22T09:02:43.910Z,4.30
2022-09-22T09:08:00.582Z,3.17
2022-09-22T09:13:23.114Z,9.32
2022-09-22T09:18:35.341Z,3.65
2022-09-22T09:29:22.464Z,5.90
2022-09-22T09:34:30.631Z,4.93
2022-09-22T09:39:36.202Z,3.83
2022-09-22T09:44:42.447Z,5.20
2022-09-22T09:49:52.845Z,2.45
2022-09-22T09:54:57.467Z,3.10
2022-09-22T10:00:32.905Z,2.78
2022-09-22T10:05:39.203Z,2.03
2022-09-22T10:10:44.107Z,4.38
2022-09-22T10:16:22.840Z,2.33
2022-09-22T10:21:29.106Z,2.55
2022-09-22T10:26:34.923Z,3.08
2022-09-22T10:31:42.127Z,2.20
2022-09-22T10:36:48.529Z,3.47
2022-09-22T10:41:53.659Z,6.78
2022-09-22T10:47:33.039Z,2.72
2022-09-22T10:52:46.532Z,3.17
2022-09-22T10:58:07.677Z,2.67
2022-09-22T11:03:39.447Z,2.17
2022-09-22T11:09:09.918Z,6.10
2022-09-22T11:14:29.836Z,8.57
2022-09-22T11:19:59.144Z,6.18
2022-09-22T11:25:19.963Z,3.77
2022-09-22T11:30:25.091Z,6.57
2022-09-22T11:35:55.454Z,17.17
2022-09-22T11:41:21.177Z,7.43
2022-09-22T11:46:40.963Z,7.55
2022-09-22T11:52:08.114Z,8.35
2022-09-22T11:57:16.142Z,13.80
2022-09-22T12:02:28.660Z,18.13
2022-09-22T12:07:45.258Z,16.35
2022-09-22T12:12:51.958Z,9.23
2022-09-22T12:18:05.867Z,10.20
2022-09-22T12:23:21.580Z,12.60
2022-09-22T12:28:28.397Z,6.40
2022-09-22T12:33:35.711Z,9.02
2022-09-22T12:38:42.570Z,19.10
2022-09-22T12:43:49.511Z,6.18
2022-09-22T12:48:55.913Z,6.85
2022-09-22T12:54:48.797Z,5.43
2022-09-22T13:00:32.879Z,5.07
2022-09-22T13:05:47.017Z,5.15
2022-09-22T13:10:58.667Z,3.00
2022-09-22T13:16:06.520Z,13.80
2022-09-22T13:21:25.314Z,3.80
2022-09-22T13:26:33.659Z,4.45
2022-09-22T13:31:45.704Z,6.88
2022-09-22T13:36:54.376Z,4.22
2022-09-22T13:42:01.326Z,6.05
2022-09-22T13:47:18.975Z,6.70
2022-09-22T13:52:30.540Z,9.00
2022-09-22T13:57:38.036Z,6.97
2022-09-22T14:02:46.828Z,10.38
2022-09-22T14:08:11.412Z,14.65
2022-09-22T14:13:42.885Z,7.78
2022-09-22T14:18:54.153Z,4.85
2022-09-22T14:24:03.233Z,4.15
2022-09-22T14:29:20.407Z,9.95
2022-09-22T14:34:31.423Z,7.15
2022-09-22T14:39:36.492Z,5.25
2022-09-22T14:44:49.553Z,8.50
2022-09-22T14:50:19.143Z,10.07
2022-09-22T14:55:32.185Z,7.32
2022-09-22T15:00:54.846Z,4.85
2022-09-22T15:06:10.032Z,4.28
2022-09-22T15:11:14.316Z,6.00
2022-09-22T15:16:39.885Z,10.15
2022-09-22T15:21:48.204Z,11.43
2022-09-22T15:26:53.387Z,8.95
2022-09-22T15:31:57.805Z,17.30
2022-09-22T15:37:05.567Z,9.05
2022-09-22T15:42:12.751Z,11.32
2022-09-22T15:47:19.328Z,7.15
2022-09-22T15:52:25.561Z,7.68
2022-09-22T15:57:31.554Z,12.65
2022-09-22T16:02:40.606Z,9.88
2022-09-22T16:07:50.270Z,12.70
2022-09-22T16:12:54.660Z,20.25
2022-09-22T16:17:59.456Z,17.65
2022-09-22T16:23:06.737Z,23.02
2022-09-22T16:28:12.539Z,25.52
2022-09-22T16:33:17.116Z,28.75
2022-09-22T16:38:23.063Z,26.92
2022-09-22T16:43:27.337Z,31.77
2022-09-22T16:48:33.674Z,33.72
2022-09-22T16:53:39.753Z,34.78
2022-09-22T16:58:43.903Z,27.20
2022-09-22T17:03:50.635Z,26.35
2022-09-22T17:08:58.307Z,27.02
2022-09-22T17:14:11.308Z,24.02
2022-09-22T17:19:20.295Z,25.23
2022-09-22T17:24:30.576Z,27.30
2022-09-22T17:29:35.246Z,25.85
2022-09-22T17:34:41.705Z,28.88
2022-09-22T17:39:48.016Z,26.42
2022-09-22T17:44:53.797Z,26.13
2022-09-22T17:50:17.805Z,29.75
2022-09-22T17:55:29.564Z,28.80
2022-09-22T18:00:38.902Z,31.55
2022-09-22T18:05:43.501Z,33.25
2022-09-22T18:10:49.144Z,255.48
2022-09-22T18:15:57.376Z,203.00
2022-09-22T18:21:07.485Z,67.85
2022-09-22T18:26:18.583Z,36.40
2022-09-22T18:36:28.053Z,31.75
2022-09-22T18:41:33.985Z,36.03
2022-09-22T18:46:38.525Z,33.33
2022-09-22T18:51:46.824Z,34.08
2022-09-22T18:56:52.838Z,28.95
2022-09-22T19:01:57.674Z,27.80
2022-09-22T19:07:28.585Z,27.10
2022-09-22T19:12:39.926Z,23.25
2022-09-22T19:17:45.481Z,34.25
2022-09-22T19:22:52.663Z,56.17
2022-09-22T19:27:58.503Z,53.97
2022-09-22T19:33:03.047Z,52.83
2022-09-22T19:38:07.947Z,55.83
2022-09-22T19:43:16.147Z,49.97
2022-09-22T19:48:21.315Z,50.90
2022-09-22T19:53:26.005Z,42.60
2022-09-22T19:58:32.086Z,47.05
2022-09-22T20:03:36.583Z,52.88
2022-09-22T20:08:42.645Z,55.50
2022-09-22T20:14:05.915Z,59.38
2022-09-22T20:19:10.840Z,63.80
2022-09-22T20:24:17.442Z,66.18
2022-09-22T20:29:23.211Z,60.55
2022-09-22T20:34:27.605Z,57.85
2022-09-22T20:39:33.579Z,53.75
2022-09-22T20:44:40.902Z,46.85
2022-09-22T20:49:50.813Z,41.78
2022-09-22T20:54:56.187Z,37.38
2022-09-22T21:00:02.315Z,40.67
2022-09-22T21:05:07.481Z,33.30
2022-09-22T21:10:30.447Z,32.88
2022-09-22T21:15:38.034Z,31.38
2022-09-22T21:20:42.979Z,33.55
2022-09-22T21:25:57.586Z,36.17
2022-09-22T21:31:05.821Z,31.25
2022-09-22T21:36:14.061Z,26.65
2022-09-22T21:41:20.569Z,32.83
2022-09-22T21:46:29.928Z,27.17
2022-09-22T21:51:41.683Z,27.75
2022-09-22T21:56:46.678Z,28.45
2022-09-22T22:01:52.986Z,24.85
2022-09-22T22:06:57.975Z,27.20
2022-09-22T22:12:02.742Z,29.85
2022-09-22T22:17:09.491Z,28.17
2022-09-22T22:22:15.550Z,28.50
2022-09-22T22:27:20.095Z,29.58
2022-09-22T22:32:26.708Z,41.90
2022-09-22T22:37:31.006Z,56.38
2022-09-22T22:42:35.448Z,123.10
2022-09-22T22:47:41.623Z,173.68
2022-09-22T22:52:46.900Z,148.73
2022-09-22T22:57:51.182Z,102.28
2022-09-22T23:02:57.149Z,59.47
2022-09-22T23:08:02.388Z,43.03
2022-09-22T23:13:07.833Z,55.72
2022-09-22T23:18:16.489Z,49.35
2022-09-22T23:23:25.201Z,43.42
2022-09-22T23:28:32.298Z,34.85
2022-09-22T23:33:39.426Z,40.83
2022-09-22T23:38:45.191Z,32.80
2022-09-22T23:43:50.234Z,31.60
2022-09-22T23:48:56.391Z,42.13
2022-09-22T23:54:01.175Z,37.72
2022-09-22T23:59:05.830Z,39.13
